sensor_id;sensor_type;location;lat;lon;timestamp;temperature;humidity
76893;DHT22;65854;51.466;7.260;2022-12-10T00:01:29;1.30;81.00
76893;DHT22;65854;51.466;7.260;2022-12-10T00:03:55;1.20;81.00
76893;DHT22;65854;51.466;7.260;2022-12-10T00:06:24;1.20;80.90
76893;DHT22;65854;51.466;7.260;2022-12-10T00:08:50;1.20;81.10
76893;DHT22;65854;51.466;7.260;2022-12-10T00:11:17;1.20;81.20
76893;DHT22;65854;51.466;7.260;2022-12-10T00:13:44;1.20;81.00
76893;DHT22;65854;51.466;7.260;2022-12-10T00:16:12;1.30;81.30
76893;DHT22;65854;51.466;7.260;2022-12-10T00:18:37;1.20;81.30
76893;DHT22;65854;51.466;7.260;2022-12-10T00:21:08;1.20;81.10
76893;DHT22;65854;51.466;7.260;2022-12-10T00:23:35;1.30;81.30
76893;DHT22;65854;51.466;7.260;2022-12-10T00:26:16;1.30;81.20
76893;DHT22;65854;51.466;7.260;2022-12-10T00:28:42;1.20;81.20
76893;DHT22;65854;51.466;7.260;2022-12-10T00:31:20;1.30;80.80
76893;DHT22;65854;51.466;7.260;2022-12-10T00:33:46;1.30;80.80
76893;DHT22;65854;51.466;7.260;2022-12-10T00:36:18;1.30;80.30
76893;DHT22;65854;51.466;7.260;2022-12-10T00:38:45;1.30;80.70
76893;DHT22;65854;51.466;7.260;2022-12-10T00:41:11;1.30;80.50
76893;DHT22;65854;51.466;7.260;2022-12-10T00:43:37;1.30;80.40
76893;DHT22;65854;51.466;7.260;2022-12-10T00:46:03;1.30;81.00
76893;DHT22;65854;51.466;7.260;2022-12-10T00:48:29;1.30;80.50
76893;DHT22;65854;51.466;7.260;2022-12-10T00:50:58;1.30;80.50
76893;DHT22;65854;51.466;7.260;2022-12-10T00:53:25;1.40;79.70
76893;DHT22;65854;51.466;7.260;2022-12-10T00:55:52;1.40;79.20
76893;DHT22;65854;51.466;7.260;2022-12-10T00:58:18;1.40;79.50
76893;DHT22;65854;51.466;7.260;2022-12-10T01:00:44;1.40;79.60
76893;DHT22;65854;51.466;7.260;2022-12-10T01:03:09;1.40;80.10
76893;DHT22;65854;51.466;7.260;2022-12-10T01:05:35;1.30;79.70
76893;DHT22;65854;51.466;7.260;2022-12-10T01:08:00;1.40;79.60
76893;DHT22;65854;51.466;7.260;2022-12-10T01:10:26;1.30;80.00
76893;DHT22;65854;51.466;7.260;2022-12-10T01:12:51;1.30;79.90
76893;DHT22;65854;51.466;7.260;2022-12-10T01:15:17;1.30;80.00
76893;DHT22;65854;51.466;7.260;2022-12-10T01:17:42;1.30;80.20
76893;DHT22;65854;51.466;7.260;2022-12-10T01:20:08;1.30;80.20
76893;DHT22;65854;51.466;7.260;2022-12-10T01:22:34;1.30;80.60
76893;DHT22;65854;51.466;7.260;2022-12-10T01:25:00;1.30;80.70
76893;DHT22;65854;51.466;7.260;2022-12-10T01:27:26;1.30;79.90
76893;DHT22;65854;51.466;7.260;2022-12-10T01:29:52;1.20;80.00
76893;DHT22;65854;51.466;7.260;2022-12-10T01:32:17;1.20;80.90
76893;DHT22;65854;51.466;7.260;2022-12-10T01:34:43;1.20;79.80
76893;DHT22;65854;51.466;7.260;2022-12-10T01:37:09;1.10;80.20
76893;DHT22;65854;51.466;7.260;2022-12-10T01:39:34;1.10;81.10
76893;DHT22;65854;51.466;7.260;2022-12-10T01:42:00;1.20;80.80
76893;DHT22;65854;51.466;7.260;2022-12-10T01:46:56;1.30;80.30
76893;DHT22;65854;51.466;7.260;2022-12-10T01:49:33;1.30;80.50
76893;DHT22;65854;51.466;7.260;2022-12-10T01:52:00;1.30;79.90
76893;DHT22;65854;51.466;7.260;2022-12-10T01:54:40;1.30;80.70
76893;DHT22;65854;51.466;7.260;2022-12-10T01:57:29;1.30;80.60
76893;DHT22;65854;51.466;7.260;2022-12-10T01:59:59;1.30;80.10
76893;DHT22;65854;51.466;7.260;2022-12-10T02:02:34;1.30;80.50
76893;DHT22;65854;51.466;7.260;2022-12-10T02:08:06;1.40;81.00
76893;DHT22;65854;51.466;7.260;2022-12-10T02:10:42;1.30;80.80
76893;DHT22;65854;51.466;7.260;2022-12-10T02:13:14;1.30;80.10
76893;DHT22;65854;51.466;7.260;2022-12-10T02:16:14;1.40;80.40
76893;DHT22;65854;51.466;7.260;2022-12-10T02:18:53;1.40;80.50
76893;DHT22;65854;51.466;7.260;2022-12-10T02:21:30;1.40;79.80
76893;DHT22;65854;51.466;7.260;2022-12-10T02:24:03;1.40;80.00
76893;DHT22;65854;51.466;7.260;2022-12-10T02:26:48;1.50;79.80
76893;DHT22;65854;51.466;7.260;2022-12-10T02:29:15;1.40;79.30
76893;DHT22;65854;51.466;7.260;2022-12-10T02:32:11;1.40;79.30
76893;DHT22;65854;51.466;7.260;2022-12-10T02:34:47;1.40;79.30
76893;DHT22;65854;51.466;7.260;2022-12-10T02:37:28;1.40;79.40
76893;DHT22;65854;51.466;7.260;2022-12-10T02:39:57;1.40;79.20
76893;DHT22;65854;51.466;7.260;2022-12-10T02:42:24;1.40;79.50
76893;DHT22;65854;51.466;7.260;2022-12-10T02:44:52;1.40;78.60
76893;DHT22;65854;51.466;7.260;2022-12-10T02:47:19;1.40;78.50
76893;DHT22;65854;51.466;7.260;2022-12-10T02:49:47;1.40;78.40
76893;DHT22;65854;51.466;7.260;2022-12-10T02:52:18;1.30;78.60
76893;DHT22;65854;51.466;7.260;2022-12-10T02:54:46;1.40;77.60
76893;DHT22;65854;51.466;7.260;2022-12-10T03:08:52;1.50;76.80
76893;DHT22;65854;51.466;7.260;2022-12-10T03:11:18;1.60;76.00
76893;DHT22;65854;51.466;7.260;2022-12-10T03:13:51;1.60;75.70
76893;DHT22;65854;51.466;7.260;2022-12-10T03:16:20;1.60;75.80
76893;DHT22;65854;51.466;7.260;2022-12-10T03:18:50;1.60;75.70
76893;DHT22;65854;51.466;7.260;2022-12-10T03:21:17;1.60;75.70
76893;DHT22;65854;51.466;7.260;2022-12-10T03:23:46;1.60;75.30
76893;DHT22;65854;51.466;7.260;2022-12-10T03:26:12;1.60;74.80
76893;DHT22;65854;51.466;7.260;2022-12-10T03:28:42;1.60;75.00
76893;DHT22;65854;51.466;7.260;2022-12-10T03:31:12;1.60;75.00
76893;DHT22;65854;51.466;7.260;2022-12-10T03:33:38;1.70;74.60
76893;DHT22;65854;51.466;7.260;2022-12-10T03:36:05;1.60;72.20
76893;DHT22;65854;51.466;7.260;2022-12-10T03:38:32;1.50;73.00
76893;DHT22;65854;51.466;7.260;2022-12-10T03:40:58;1.50;72.50
76893;DHT22;65854;51.466;7.260;2022-12-10T03:43:23;1.50;73.30
76893;DHT22;65854;51.466;7.260;2022-12-10T03:45:49;1.50;73.10
76893;DHT22;65854;51.466;7.260;2022-12-10T03:48:14;1.50;73.50
76893;DHT22;65854;51.466;7.260;2022-12-10T03:50:40;1.50;74.30
76893;DHT22;65854;51.466;7.260;2022-12-10T03:53:05;1.60;74.00
76893;DHT22;65854;51.466;7.260;2022-12-10T03:55:31;1.60;73.10
76893;DHT22;65854;51.466;7.260;2022-12-10T03:57:58;1.70;72.90
76893;DHT22;65854;51.466;7.260;2022-12-10T04:00:23;1.70;73.10
76893;DHT22;65854;51.466;7.260;2022-12-10T04:02:49;1.70;72.00
76893;DHT22;65854;51.466;7.260;2022-12-10T04:05:15;1.60;71.40
76893;DHT22;65854;51.466;7.260;2022-12-10T04:07:41;1.60;73.00
76893;DHT22;65854;51.466;7.260;2022-12-10T04:10:06;1.70;72.70
76893;DHT22;65854;51.466;7.260;2022-12-10T04:12:32;1.70;72.40
76893;DHT22;65854;51.466;7.260;2022-12-10T04:14:58;1.70;72.20
76893;DHT22;65854;51.466;7.260;2022-12-10T04:17:42;1.80;71.90
76893;DHT22;65854;51.466;7.260;2022-12-10T04:20:08;1.80;71.60
76893;DHT22;65854;51.466;7.260;2022-12-10T04:22:54;1.80;72.80
76893;DHT22;65854;51.466;7.260;2022-12-10T04:25:38;1.80;71.30
76893;DHT22;65854;51.466;7.260;2022-12-10T04:28:22;1.80;71.40
76893;DHT22;65854;51.466;7.260;2022-12-10T04:30:47;1.80;70.40
76893;DHT22;65854;51.466;7.260;2022-12-10T04:33:13;1.80;70.60
76893;DHT22;65854;51.466;7.260;2022-12-10T04:35:38;1.70;70.70
76893;DHT22;65854;51.466;7.260;2022-12-10T04:38:04;1.70;70.50
76893;DHT22;65854;51.466;7.260;2022-12-10T04:40:30;1.70;70.30
76893;DHT22;65854;51.466;7.260;2022-12-10T04:42:55;1.80;70.20
76893;DHT22;65854;51.466;7.260;2022-12-10T04:45:21;1.80;69.50
76893;DHT22;65854;51.466;7.260;2022-12-10T04:47:46;1.80;70.00
76893;DHT22;65854;51.466;7.260;2022-12-10T04:50:12;1.80;69.50
76893;DHT22;65854;51.466;7.260;2022-12-10T04:52:37;1.70;69.80
76893;DHT22;65854;51.466;7.260;2022-12-10T04:55:03;1.60;69.60
76893;DHT22;65854;51.466;7.260;2022-12-10T04:57:29;1.50;71.30
76893;DHT22;65854;51.466;7.260;2022-12-10T04:59:54;1.50;70.20
76893;DHT22;65854;51.466;7.260;2022-12-10T05:02:20;1.50;69.20
76893;DHT22;65854;51.466;7.260;2022-12-10T05:04:47;1.50;69.50
76893;DHT22;65854;51.466;7.260;2022-12-10T05:07:13;1.50;70.50
76893;DHT22;65854;51.466;7.260;2022-12-10T05:09:38;1.50;70.60
76893;DHT22;65854;51.466;7.260;2022-12-10T05:12:04;1.50;70.50
76893;DHT22;65854;51.466;7.260;2022-12-10T05:14:30;1.50;70.00
76893;DHT22;65854;51.466;7.260;2022-12-10T05:16:55;1.50;69.30
76893;DHT22;65854;51.466;7.260;2022-12-10T05:19:21;1.50;70.00
76893;DHT22;65854;51.466;7.260;2022-12-10T05:21:48;1.60;69.70
76893;DHT22;65854;51.466;7.260;2022-12-10T05:24:33;1.60;70.30
76893;DHT22;65854;51.466;7.260;2022-12-10T05:26:58;1.60;70.00
76893;DHT22;65854;51.466;7.260;2022-12-10T05:29:24;1.60;68.60
76893;DHT22;65854;51.466;7.260;2022-12-10T05:31:50;1.60;68.80
76893;DHT22;65854;51.466;7.260;2022-12-10T05:34:15;1.50;70.80
76893;DHT22;65854;51.466;7.260;2022-12-10T05:36:41;1.50;69.20
76893;DHT22;65854;51.466;7.260;2022-12-10T05:39:07;1.50;69.50
76893;DHT22;65854;51.466;7.260;2022-12-10T05:41:36;1.50;68.50
76893;DHT22;65854;51.466;7.260;2022-12-10T05:44:02;1.30;68.60
76893;DHT22;65854;51.466;7.260;2022-12-10T05:46:30;1.20;68.50
76893;DHT22;65854;51.466;7.260;2022-12-10T05:48:56;1.20;69.20
76893;DHT22;65854;51.466;7.260;2022-12-10T05:51:25;1.20;70.20
76893;DHT22;65854;51.466;7.260;2022-12-10T05:53:51;1.30;70.50
76893;DHT22;65854;51.466;7.260;2022-12-10T05:56:19;1.30;70.20
76893;DHT22;65854;51.466;7.260;2022-12-10T05:58:46;1.40;71.70
76893;DHT22;65854;51.466;7.260;2022-12-10T06:01:18;1.40;70.90
76893;DHT22;65854;51.466;7.260;2022-12-10T06:03:44;1.40;70.90
76893;DHT22;65854;51.466;7.260;2022-12-10T06:06:11;1.30;71.80
76893;DHT22;65854;51.466;7.260;2022-12-10T06:08:37;1.20;69.10
76893;DHT22;65854;51.466;7.260;2022-12-10T06:11:08;1.20;69.40
76893;DHT22;65854;51.466;7.260;2022-12-10T06:13:34;1.10;69.80
76893;DHT22;65854;51.466;7.260;2022-12-10T06:16:03;1.00;70.40
76893;DHT22;65854;51.466;7.260;2022-12-10T06:18:28;1.10;70.50
76893;DHT22;65854;51.466;7.260;2022-12-10T06:20:54;1.00;70.60
76893;DHT22;65854;51.466;7.260;2022-12-10T06:23:19;1.00;69.80
76893;DHT22;65854;51.466;7.260;2022-12-10T06:25:45;0.90;70.80
76893;DHT22;65854;51.466;7.260;2022-12-10T06:28:10;0.90;70.50
76893;DHT22;65854;51.466;7.260;2022-12-10T06:30:36;0.80;70.30
76893;DHT22;65854;51.466;7.260;2022-12-10T06:33:02;0.80;70.80
76893;DHT22;65854;51.466;7.260;2022-12-10T06:35:27;0.80;71.30
76893;DHT22;65854;51.466;7.260;2022-12-10T06:37:53;0.80;72.00
76893;DHT22;65854;51.466;7.260;2022-12-10T06:40:18;0.80;72.50
76893;DHT22;65854;51.466;7.260;2022-12-10T06:42:44;0.70;73.70
76893;DHT22;65854;51.466;7.260;2022-12-10T06:45:10;0.70;73.60
76893;DHT22;65854;51.466;7.260;2022-12-10T06:47:36;0.70;73.70
76893;DHT22;65854;51.466;7.260;2022-12-10T06:50:02;0.60;74.10
76893;DHT22;65854;51.466;7.260;2022-12-10T06:52:27;0.60;74.50
76893;DHT22;65854;51.466;7.260;2022-12-10T06:54:53;0.60;74.60
76893;DHT22;65854;51.466;7.260;2022-12-10T06:57:20;0.60;75.40
76893;DHT22;65854;51.466;7.260;2022-12-10T06:59:46;0.60;75.00
76893;DHT22;65854;51.466;7.260;2022-12-10T07:02:12;0.60;75.20
76893;DHT22;65854;51.466;7.260;2022-12-10T07:04:38;0.50;74.90
76893;DHT22;65854;51.466;7.260;2022-12-10T07:07:05;0.50;75.00
76893;DHT22;65854;51.466;7.260;2022-12-10T07:09:30;0.50;75.10
76893;DHT22;65854;51.466;7.260;2022-12-10T07:11:57;0.40;75.30
76893;DHT22;65854;51.466;7.260;2022-12-10T07:14:22;0.40;75.90
76893;DHT22;65854;51.466;7.260;2022-12-10T07:16:48;0.40;76.10
76893;DHT22;65854;51.466;7.260;2022-12-10T07:19:14;0.40;75.60
76893;DHT22;65854;51.466;7.260;2022-12-10T07:21:41;0.40;76.50
76893;DHT22;65854;51.466;7.260;2022-12-10T07:24:11;0.40;74.50
76893;DHT22;65854;51.466;7.260;2022-12-10T07:26:39;0.40;74.50
76893;DHT22;65854;51.466;7.260;2022-12-10T07:29:08;0.40;73.90
76893;DHT22;65854;51.466;7.260;2022-12-10T07:31:35;0.50;74.50
76893;DHT22;65854;51.466;7.260;2022-12-10T07:34:01;0.40;75.00
76893;DHT22;65854;51.466;7.260;2022-12-10T07:36:27;0.40;74.90
76893;DHT22;65854;51.466;7.260;2022-12-10T07:38:54;0.40;74.90
76893;DHT22;65854;51.466;7.260;2022-12-10T07:41:21;0.40;75.70
76893;DHT22;65854;51.466;7.260;2022-12-10T07:43:47;0.40;75.40
76893;DHT22;65854;51.466;7.260;2022-12-10T07:46:20;0.40;75.40
76893;DHT22;65854;51.466;7.260;2022-12-10T07:48:47;0.40;75.50
76893;DHT22;65854;51.466;7.260;2022-12-10T07:51:14;0.40;75.60
76893;DHT22;65854;51.466;7.260;2022-12-10T07:53:39;0.40;75.40
76893;DHT22;65854;51.466;7.260;2022-12-10T07:56:05;0.40;75.20
76893;DHT22;65854;51.466;7.260;2022-12-10T07:58:31;0.40;75.80
76893;DHT22;65854;51.466;7.260;2022-12-10T08:00:57;0.40;75.10
76893;DHT22;65854;51.466;7.260;2022-12-10T08:03:23;0.40;74.60
76893;DHT22;65854;51.466;7.260;2022-12-10T08:05:59;0.20;74.50
76893;DHT22;65854;51.466;7.260;2022-12-10T08:08:25;0.20;76.00
76893;DHT22;65854;51.466;7.260;2022-12-10T08:10:50;0.20;75.30
76893;DHT22;65854;51.466;7.260;2022-12-10T08:13:16;0.20;75.40
76893;DHT22;65854;51.466;7.260;2022-12-10T08:15:42;0.30;75.40
76893;DHT22;65854;51.466;7.260;2022-12-10T08:18:07;0.30;74.70
76893;DHT22;65854;51.466;7.260;2022-12-10T08:20:33;0.30;74.60
76893;DHT22;65854;51.466;7.260;2022-12-10T08:22:58;0.30;74.20
76893;DHT22;65854;51.466;7.260;2022-12-10T08:25:24;0.20;75.00
76893;DHT22;65854;51.466;7.260;2022-12-10T08:27:49;0.30;75.00
76893;DHT22;65854;51.466;7.260;2022-12-10T08:30:15;0.30;74.80
76893;DHT22;65854;51.466;7.260;2022-12-10T08:32:40;0.30;75.20
76893;DHT22;65854;51.466;7.260;2022-12-10T08:35:06;0.30;74.90
76893;DHT22;65854;51.466;7.260;2022-12-10T08:37:32;0.30;75.20
76893;DHT22;65854;51.466;7.260;2022-12-10T08:39:57;0.20;75.50
76893;DHT22;65854;51.466;7.260;2022-12-10T08:42:23;0.20;76.60
76893;DHT22;65854;51.466;7.260;2022-12-10T08:44:48;0.30;77.10
76893;DHT22;65854;51.466;7.260;2022-12-10T08:47:14;0.20;77.30
76893;DHT22;65854;51.466;7.260;2022-12-10T08:49:39;0.10;78.00
76893;DHT22;65854;51.466;7.260;2022-12-10T08:52:05;-0.10;78.50
76893;DHT22;65854;51.466;7.260;2022-12-10T08:54:30;-0.20;79.20
76893;DHT22;65854;51.466;7.260;2022-12-10T08:56:56;-0.20;80.40
76893;DHT22;65854;51.466;7.260;2022-12-10T08:59:21;-0.10;80.00
76893;DHT22;65854;51.466;7.260;2022-12-10T09:01:47;-0.10;79.20
76893;DHT22;65854;51.466;7.260;2022-12-10T09:04:12;-0.10;78.70
76893;DHT22;65854;51.466;7.260;2022-12-10T09:06:43;-0.30;79.80
76893;DHT22;65854;51.466;7.260;2022-12-10T09:09:09;-0.30;80.60
76893;DHT22;65854;51.466;7.260;2022-12-10T09:11:35;-0.20;80.00
76893;DHT22;65854;51.466;7.260;2022-12-10T09:14:01;-0.20;80.30
76893;DHT22;65854;51.466;7.260;2022-12-10T09:16:29;-0.10;80.20
76893;DHT22;65854;51.466;7.260;2022-12-10T09:18:55;0.00;79.30
76893;DHT22;65854;51.466;7.260;2022-12-10T09:21:21;0.00;78.40
76893;DHT22;65854;51.466;7.260;2022-12-10T09:23:47;0.00;79.20
76893;DHT22;65854;51.466;7.260;2022-12-10T09:26:14;0.10;78.80
76893;DHT22;65854;51.466;7.260;2022-12-10T09:28:41;0.10;78.70
76893;DHT22;65854;51.466;7.260;2022-12-10T09:31:08;0.10;78.30
76893;DHT22;65854;51.466;7.260;2022-12-10T09:33:34;0.10;78.20
76893;DHT22;65854;51.466;7.260;2022-12-10T09:36:01;0.00;78.70
76893;DHT22;65854;51.466;7.260;2022-12-10T09:38:27;0.10;79.20
76893;DHT22;65854;51.466;7.260;2022-12-10T09:41:34;0.20;77.30
76893;DHT22;65854;51.466;7.260;2022-12-10T09:46:51;0.20;78.10
76893;DHT22;65854;51.466;7.260;2022-12-10T09:52:24;0.20;76.40
76893;DHT22;65854;51.466;7.260;2022-12-10T09:55:03;-0.10;77.00
76893;DHT22;65854;51.466;7.260;2022-12-10T09:57:31;-0.20;78.10
76893;DHT22;65854;51.466;7.260;2022-12-10T10:00:03;-0.10;78.50
76893;DHT22;65854;51.466;7.260;2022-12-10T10:02:31;0.00;77.70
76893;DHT22;65854;51.466;7.260;2022-12-10T10:07:49;-0.10;77.70
76893;DHT22;65854;51.466;7.260;2022-12-10T10:10:31;-0.10;78.90
76893;DHT22;65854;51.466;7.260;2022-12-10T10:15:50;0.20;77.30
76893;DHT22;65854;51.466;7.260;2022-12-10T10:18:41;0.10;77.30
76893;DHT22;65854;51.466;7.260;2022-12-10T10:21:13;0.20;77.80
76893;DHT22;65854;51.466;7.260;2022-12-10T10:23:41;0.20;76.80
76893;DHT22;65854;51.466;7.260;2022-12-10T10:26:08;0.30;77.10
76893;DHT22;65854;51.466;7.260;2022-12-10T10:28:33;0.30;77.30
76893;DHT22;65854;51.466;7.260;2022-12-10T10:30:59;0.40;77.00
76893;DHT22;65854;51.466;7.260;2022-12-10T10:33:24;0.40;76.70
76893;DHT22;65854;51.466;7.260;2022-12-10T10:35:55;0.30;76.60
76893;DHT22;65854;51.466;7.260;2022-12-10T10:38:29;0.40;76.70
76893;DHT22;65854;51.466;7.260;2022-12-10T10:41:00;0.50;76.70
76893;DHT22;65854;51.466;7.260;2022-12-10T10:43:47;0.40;76.20
76893;DHT22;65854;51.466;7.260;2022-12-10T10:46:16;0.40;77.00
76893;DHT22;65854;51.466;7.260;2022-12-10T10:48:43;0.50;76.60
76893;DHT22;65854;51.466;7.260;2022-12-10T10:51:19;0.50;76.10
76893;DHT22;65854;51.466;7.260;2022-12-10T10:56:20;0.70;77.00
76893;DHT22;65854;51.466;7.260;2022-12-10T11:01:47;0.70;76.20
76893;DHT22;65854;51.466;7.260;2022-12-10T11:04:16;0.70;76.70
76893;DHT22;65854;51.466;7.260;2022-12-10T11:06:43;0.80;76.90
76893;DHT22;65854;51.466;7.260;2022-12-10T11:09:22;0.80;76.00
76893;DHT22;65854;51.466;7.260;2022-12-10T11:11:51;0.90;75.60
76893;DHT22;65854;51.466;7.260;2022-12-10T11:14:29;0.80;76.30
76893;DHT22;65854;51.466;7.260;2022-12-10T11:19:42;0.80;75.70
76893;DHT22;65854;51.466;7.260;2022-12-10T11:22:21;0.70;76.20
76893;DHT22;65854;51.466;7.260;2022-12-10T11:24:48;0.70;76.10
76893;DHT22;65854;51.466;7.260;2022-12-10T11:30:14;0.80;76.10
76893;DHT22;65854;51.466;7.260;2022-12-10T11:33:03;0.80;76.40
76893;DHT22;65854;51.466;7.260;2022-12-10T11:36:05;0.90;76.80
76893;DHT22;65854;51.466;7.260;2022-12-10T11:38:37;1.00;76.60
76893;DHT22;65854;51.466;7.260;2022-12-10T11:41:10;1.00;76.10
76893;DHT22;65854;51.466;7.260;2022-12-10T11:52:12;1.10;75.60
76893;DHT22;65854;51.466;7.260;2022-12-10T11:55:05;1.10;75.90
76893;DHT22;65854;51.466;7.260;2022-12-10T12:00:48;1.10;75.70
76893;DHT22;65854;51.466;7.260;2022-12-10T12:14:53;1.10;76.10
76893;DHT22;65854;51.466;7.260;2022-12-10T12:17:27;1.10;75.90
76893;DHT22;65854;51.466;7.260;2022-12-10T12:19:56;1.10;75.90
76893;DHT22;65854;51.466;7.260;2022-12-10T12:22:33;1.10;75.90
76893;DHT22;65854;51.466;7.260;2022-12-10T12:25:04;1.20;76.30
76893;DHT22;65854;51.466;7.260;2022-12-10T12:27:39;1.20;76.00
76893;DHT22;65854;51.466;7.260;2022-12-10T12:30:15;1.20;75.90
76893;DHT22;65854;51.466;7.260;2022-12-10T12:33:10;1.20;75.40
76893;DHT22;65854;51.466;7.260;2022-12-10T12:35:38;1.20;75.80
76893;DHT22;65854;51.466;7.260;2022-12-10T12:40:43;1.20;75.00
76893;DHT22;65854;51.466;7.260;2022-12-10T12:43:17;1.20;75.80
76893;DHT22;65854;51.466;7.260;2022-12-10T12:45:53;1.20;75.10
76893;DHT22;65854;51.466;7.260;2022-12-10T12:51:39;1.10;74.90
76893;DHT22;65854;51.466;7.260;2022-12-10T12:54:09;1.10;74.90
76893;DHT22;65854;51.466;7.260;2022-12-10T13:01:53;1.30;74.90
76893;DHT22;65854;51.466;7.260;2022-12-10T13:04:19;1.30;73.90
76893;DHT22;65854;51.466;7.260;2022-12-10T13:10:42;1.20;74.00
76893;DHT22;65854;51.466;7.260;2022-12-10T13:12:49;1.20;74.40
76893;DHT22;65854;51.466;7.260;2022-12-10T13:18:06;1.10;73.70
76893;DHT22;65854;51.466;7.260;2022-12-10T13:20:51;1.10;74.90
76893;DHT22;65854;51.466;7.260;2022-12-10T13:28:25;1.10;74.60
76893;DHT22;65854;51.466;7.260;2022-12-10T13:47:27;1.20;74.10
76893;DHT22;65854;51.466;7.260;2022-12-10T13:52:45;1.20;74.50
76893;DHT22;65854;51.466;7.260;2022-12-10T14:01:38;1.30;74.30
76893;DHT22;65854;51.466;7.260;2022-12-10T14:04:29;1.20;74.30
76893;DHT22;65854;51.466;7.260;2022-12-10T14:07:00;1.20;74.70
76893;DHT22;65854;51.466;7.260;2022-12-10T14:09:31;1.30;74.70
76893;DHT22;65854;51.466;7.260;2022-12-10T14:12:17;1.30;75.20
76893;DHT22;65854;51.466;7.260;2022-12-10T14:14:47;1.30;74.40
76893;DHT22;65854;51.466;7.260;2022-12-10T14:17:19;1.30;75.50
76893;DHT22;65854;51.466;7.260;2022-12-10T14:19:47;1.20;74.80
76893;DHT22;65854;51.466;7.260;2022-12-10T14:22:18;1.20;74.90
76893;DHT22;65854;51.466;7.260;2022-12-10T14:24:47;1.20;75.60
76893;DHT22;65854;51.466;7.260;2022-12-10T14:27:20;1.20;75.00
76893;DHT22;65854;51.466;7.260;2022-12-10T14:29:51;1.20;75.60
76893;DHT22;65854;51.466;7.260;2022-12-10T14:32:20;1.20;75.00
76893;DHT22;65854;51.466;7.260;2022-12-10T14:34:52;1.20;75.40
76893;DHT22;65854;51.466;7.260;2022-12-10T14:37:23;1.20;75.00
76893;DHT22;65854;51.466;7.260;2022-12-10T14:39:50;1.20;74.90
76893;DHT22;65854;51.466;7.260;2022-12-10T14:42:17;1.10;75.30
76893;DHT22;65854;51.466;7.260;2022-12-10T14:44:43;1.10;75.20
76893;DHT22;65854;51.466;7.260;2022-12-10T14:47:14;1.10;75.60
76893;DHT22;65854;51.466;7.260;2022-12-10T14:49:43;1.10;75.70
76893;DHT22;65854;51.466;7.260;2022-12-10T14:52:12;1.10;76.20
76893;DHT22;65854;51.466;7.260;2022-12-10T14:54:38;1.20;75.70
76893;DHT22;65854;51.466;7.260;2022-12-10T14:57:17;1.20;76.10
76893;DHT22;65854;51.466;7.260;2022-12-10T14:59:48;1.20;76.30
76893;DHT22;65854;51.466;7.260;2022-12-10T15:02:28;1.20;75.90
76893;DHT22;65854;51.466;7.260;2022-12-10T15:04:54;1.30;75.70
76893;DHT22;65854;51.466;7.260;2022-12-10T15:07:24;1.20;76.00
76893;DHT22;65854;51.466;7.260;2022-12-10T15:09:52;1.20;75.90
76893;DHT22;65854;51.466;7.260;2022-12-10T15:14:58;1.20;76.20
76893;DHT22;65854;51.466;7.260;2022-12-10T15:17:42;1.10;75.90
76893;DHT22;65854;51.466;7.260;2022-12-10T15:20:32;1.00;76.30
76893;DHT22;65854;51.466;7.260;2022-12-10T15:30:51;1.20;76.70
76893;DHT22;65854;51.466;7.260;2022-12-10T15:33:36;1.10;76.00
76893;DHT22;65854;51.466;7.260;2022-12-10T15:36:03;1.10;76.00
76893;DHT22;65854;51.466;7.260;2022-12-10T15:38:28;1.10;76.20
76893;DHT22;65854;51.466;7.260;2022-12-10T15:40:58;1.10;76.50
76893;DHT22;65854;51.466;7.260;2022-12-10T15:43:28;1.10;76.30
76893;DHT22;65854;51.466;7.260;2022-12-10T15:45:55;1.10;76.60
76893;DHT22;65854;51.466;7.260;2022-12-10T15:48:21;1.10;76.60
76893;DHT22;65854;51.466;7.260;2022-12-10T15:50:49;1.00;76.60
76893;DHT22;65854;51.466;7.260;2022-12-10T15:53:24;1.00;76.80
76893;DHT22;65854;51.466;7.260;2022-12-10T15:55:51;1.10;76.80
76893;DHT22;65854;51.466;7.260;2022-12-10T15:58:16;1.10;76.40
76893;DHT22;65854;51.466;7.260;2022-12-10T16:00:42;1.10;76.80
76893;DHT22;65854;51.466;7.260;2022-12-10T16:03:14;1.10;76.00
76893;DHT22;65854;51.466;7.260;2022-12-10T16:05:41;1.00;77.00
76893;DHT22;65854;51.466;7.260;2022-12-10T16:08:22;1.10;77.10
76893;DHT22;65854;51.466;7.260;2022-12-10T16:10:49;1.10;77.10
76893;DHT22;65854;51.466;7.260;2022-12-10T16:13:21;1.20;76.70
76893;DHT22;65854;51.466;7.260;2022-12-10T16:15:59;1.20;76.40
76893;DHT22;65854;51.466;7.260;2022-12-10T16:18:26;1.30;76.40
76893;DHT22;65854;51.466;7.260;2022-12-10T16:20:51;1.30;76.30
76893;DHT22;65854;51.466;7.260;2022-12-10T16:23:17;1.30;76.60
76893;DHT22;65854;51.466;7.260;2022-12-10T16:25:44;1.30;76.10
76893;DHT22;65854;51.466;7.260;2022-12-10T16:28:15;1.30;76.10
76893;DHT22;65854;51.466;7.260;2022-12-10T16:30:48;1.20;76.10
76893;DHT22;65854;51.466;7.260;2022-12-10T16:33:18;1.20;76.10
76893;DHT22;65854;51.466;7.260;2022-12-10T16:35:45;1.10;77.20
76893;DHT22;65854;51.466;7.260;2022-12-10T16:38:11;1.00;77.00
76893;DHT22;65854;51.466;7.260;2022-12-10T16:40:38;1.00;77.70
76893;DHT22;65854;51.466;7.260;2022-12-10T16:43:04;1.00;77.30
76893;DHT22;65854;51.466;7.260;2022-12-10T16:45:35;0.90;78.10
76893;DHT22;65854;51.466;7.260;2022-12-10T16:48:02;0.90;78.10
76893;DHT22;65854;51.466;7.260;2022-12-10T16:50:28;0.90;77.20
76893;DHT22;65854;51.466;7.260;2022-12-10T16:52:55;0.80;77.80
76893;DHT22;65854;51.466;7.260;2022-12-10T16:55:23;0.90;78.20
76893;DHT22;65854;51.466;7.260;2022-12-10T16:57:49;0.90;77.70
76893;DHT22;65854;51.466;7.260;2022-12-10T17:00:17;0.90;78.00
76893;DHT22;65854;51.466;7.260;2022-12-10T17:02:43;0.90;77.80
76893;DHT22;65854;51.466;7.260;2022-12-10T17:05:29;0.90;76.80
76893;DHT22;65854;51.466;7.260;2022-12-10T17:07:56;0.90;77.40
76893;DHT22;65854;51.466;7.260;2022-12-10T17:10:21;1.00;77.20
76893;DHT22;65854;51.466;7.260;2022-12-10T17:13:10;1.00;77.10
76893;DHT22;65854;51.466;7.260;2022-12-10T17:15:37;1.00;77.30
76893;DHT22;65854;51.466;7.260;2022-12-10T17:18:02;1.00;77.60
76893;DHT22;65854;51.466;7.260;2022-12-10T17:20:31;1.00;77.70
76893;DHT22;65854;51.466;7.260;2022-12-10T17:22:56;1.00;77.80
76893;DHT22;65854;51.466;7.260;2022-12-10T17:25:22;1.10;77.50
76893;DHT22;65854;51.466;7.260;2022-12-10T17:27:47;1.10;76.70
76893;DHT22;65854;51.466;7.260;2022-12-10T17:30:14;1.10;77.00
76893;DHT22;65854;51.466;7.260;2022-12-10T17:32:41;1.10;77.20
76893;DHT22;65854;51.466;7.260;2022-12-10T17:35:07;1.20;77.00
76893;DHT22;65854;51.466;7.260;2022-12-10T17:37:35;1.10;76.90
76893;DHT22;65854;51.466;7.260;2022-12-10T17:40:03;1.10;77.20
76893;DHT22;65854;51.466;7.260;2022-12-10T17:42:28;1.20;77.40
76893;DHT22;65854;51.466;7.260;2022-12-10T17:44:54;1.20;76.90
76893;DHT22;65854;51.466;7.260;2022-12-10T17:47:23;1.20;77.00
76893;DHT22;65854;51.466;7.260;2022-12-10T17:49:49;1.10;76.90
76893;DHT22;65854;51.466;7.260;2022-12-10T17:52:15;1.20;77.20
76893;DHT22;65854;51.466;7.260;2022-12-10T17:54:41;1.20;77.30
76893;DHT22;65854;51.466;7.260;2022-12-10T17:57:23;1.30;77.10
76893;DHT22;65854;51.466;7.260;2022-12-10T17:59:50;1.30;77.50